Airfield :
LOGIN :

Register | Disclaimer

   EN    FR    IT 

 










Legend :    VFR   Marginal VFR   IFR   Intensive IFR   Very Intensive IFR
Visi :
Ceiling :
>= 8 km
>= 3000ft
5 to 8 km
1000 to 3000 ft
1500m to 5 km
500 to 1000 ft
800 to 1500m
200 to 500 ft
< 800m
< 200 ft
Symbols :   Thunderstorms  Fog  Heavy snow  Heavy precipitations  Wind > 20 kt
SIGMETs :     Misc.  Thunderstorms  Icing  Turbulence  Mountain Waves  Volcanic Ashes







- Airport Elevation : 375 ft
- IATA code : MST


EHBK - Maastricht Aachen

CURRENT METAR :
  • 200825Z AUTO 22016KT 200V260 9999 FEW017 14/11 Q1009 NOSIG

EXPIRED METARs :
  • 200755Z AUTO 22015KT 9999 FEW015 13/11 Q1008 BECMG NSW SCT020
  • 200725Z AUTO 21016KT 9999 FEW037 13/11 Q1008 REDZ BECMG NSW SCT020
  • 200655Z AUTO 22013KT 9999 +DZRA FEW015CB SCT016 BKN023 15/13 Q1007 BECMG NSW SCT020
  • 200625Z AUTO 19013KT 9999 -DZ FEW015CB SCT026 BKN029 OVC033 15/12 Q1006 REDZ TEMPO 4000 RA SHRA SCT018CB
  • 200555Z AUTO 18012KT 160V220 9999 -RA FEW037 SCT041 BKN047 16/12 Q1006 TEMPO 4000 RA SHRA SCT018CB

TAF COR TAF EHBK
Valid from the 20 at 06:00 until the 21 at 12:00 UTC


200500Z 2006/2112 20012KT 9999 BKN045
BECMG 2006/2009 23015G25KT
TEMPO 2006/2009 4000 RA SHRA SCT018CB BKN030
BECMG 2021/2024 20008KT
BECMG 2106/2109 23012KT
TEMPO 2107/2111 4000 RA BKN014
No reported NOTAMs for that airfield.
1 SIGMET reported for the Amsterdam FIR (EHAA) :
 
Severe turbulence
EHAA SIGMET 1 VALID 200806/201200 EHDB
EHAA AMSTERDAM FIR SEV TURB FCST SW OF LINE N5224 E00241 - N5121 E00421 FL250/370 MOV NE 20KT NC=



MET'MAP, your aeronautical weather chart ! - Copyright ORBIFLY December 2007 - Disclaimer

ORBIFLY MET'MAP TEAM :

Programming & Development : Alexandra Zaïnal
Concept & Development : Baudouin d'Aumeries
Co-Development & Prog : Marc-Olivier Méhu
Technical & hardware support : Manuel Goepfert

Contact : metmap@orbifly.com




SOURCES & CREDITS :

   NOAA